sensor_id;sensor_type;location;lat;lon;timestamp;P1;durP1;ratioP1;P2;durP2;ratioP2
80854;SDS011;70272;49.222;-122.892;2024-01-07T00:01:48;6.13;;;4.30;;
80854;SDS011;70272;49.222;-122.892;2024-01-07T00:04:15;5.85;;;4.03;;
80854;SDS011;70272;49.222;-122.892;2024-01-07T00:06:42;5.40;;;3.60;;
80854;SDS011;70272;49.222;-122.892;2024-01-07T00:09:08;4.57;;;3.50;;
80854;SDS011;70272;49.222;-122.892;2024-01-07T00:11:35;6.28;;;3.28;;
80854;SDS011;70272;49.222;-122.892;2024-01-07T00:14:02;4.10;;;2.80;;
80854;SDS011;70272;49.222;-122.892;2024-01-07T00:16:28;5.40;;;3.03;;
80854;SDS011;70272;49.222;-122.892;2024-01-07T00:18:54;4.78;;;3.00;;
80854;SDS011;70272;49.222;-122.892;2024-01-07T00:21:20;4.90;;;2.90;;
80854;SDS011;70272;49.222;-122.892;2024-01-07T00:23:47;4.50;;;3.10;;
80854;SDS011;70272;49.222;-122.892;2024-01-07T00:26:13;3.97;;;2.63;;
80854;SDS011;70272;49.222;-122.892;2024-01-07T00:28:39;3.83;;;2.58;;
80854;SDS011;70272;49.222;-122.892;2024-01-07T00:31:06;4.72;;;3.47;;
80854;SDS011;70272;49.222;-122.892;2024-01-07T00:33:35;5.70;;;3.58;;
80854;SDS011;70272;49.222;-122.892;2024-01-07T00:36:03;5.20;;;3.20;;
80854;SDS011;70272;49.222;-122.892;2024-01-07T00:38:29;4.43;;;3.03;;
80854;SDS011;70272;49.222;-122.892;2024-01-07T00:40:55;6.35;;;3.58;;
80854;SDS011;70272;49.222;-122.892;2024-01-07T00:43:21;4.07;;;2.90;;
80854;SDS011;70272;49.222;-122.892;2024-01-07T00:45:48;3.63;;;2.65;;
80854;SDS011;70272;49.222;-122.892;2024-01-07T00:48:14;5.63;;;2.78;;
80854;SDS011;70272;49.222;-122.892;2024-01-07T00:50:41;3.80;;;3.00;;
80854;SDS011;70272;49.222;-122.892;2024-01-07T00:53:08;4.03;;;3.15;;
80854;SDS011;70272;49.222;-122.892;2024-01-07T00:55:34;4.07;;;2.97;;
80854;SDS011;70272;49.222;-122.892;2024-01-07T00:58:01;5.65;;;3.55;;
80854;SDS011;70272;49.222;-122.892;2024-01-07T01:00:27;4.78;;;2.70;;
80854;SDS011;70272;49.222;-122.892;2024-01-07T01:02:55;3.55;;;2.35;;
80854;SDS011;70272;49.222;-122.892;2024-01-07T01:05:21;5.75;;;2.95;;
80854;SDS011;70272;49.222;-122.892;2024-01-07T01:07:47;3.75;;;2.60;;
80854;SDS011;70272;49.222;-122.892;2024-01-07T01:10:14;3.35;;;2.67;;
80854;SDS011;70272;49.222;-122.892;2024-01-07T01:12:42;3.95;;;2.90;;
80854;SDS011;70272;49.222;-122.892;2024-01-07T01:15:09;4.30;;;3.20;;
80854;SDS011;70272;49.222;-122.892;2024-01-07T01:17:35;5.10;;;2.78;;
80854;SDS011;70272;49.222;-122.892;2024-01-07T01:20:02;5.25;;;2.95;;
80854;SDS011;70272;49.222;-122.892;2024-01-07T01:22:28;4.55;;;2.47;;
80854;SDS011;70272;49.222;-122.892;2024-01-07T01:24:55;5.90;;;3.22;;
80854;SDS011;70272;49.222;-122.892;2024-01-07T01:27:21;4.72;;;3.03;;
80854;SDS011;70272;49.222;-122.892;2024-01-07T01:29:47;6.25;;;3.00;;
80854;SDS011;70272;49.222;-122.892;2024-01-07T01:32:14;4.35;;;2.83;;
80854;SDS011;70272;49.222;-122.892;2024-01-07T01:34:40;4.88;;;2.80;;
80854;SDS011;70272;49.222;-122.892;2024-01-07T01:37:08;5.45;;;2.85;;
80854;SDS011;70272;49.222;-122.892;2024-01-07T01:39:35;4.78;;;2.70;;
80854;SDS011;70272;49.222;-122.892;2024-01-07T01:42:01;8.60;;;3.33;;
80854;SDS011;70272;49.222;-122.892;2024-01-07T01:44:28;5.03;;;2.72;;
80854;SDS011;70272;49.222;-122.892;2024-01-07T01:46:55;7.28;;;3.20;;
80854;SDS011;70272;49.222;-122.892;2024-01-07T01:49:21;7.00;;;3.15;;
80854;SDS011;70272;49.222;-122.892;2024-01-07T01:51:48;5.28;;;3.28;;
80854;SDS011;70272;49.222;-122.892;2024-01-07T01:54:15;3.70;;;2.95;;
80854;SDS011;70272;49.222;-122.892;2024-01-07T01:56:42;6.57;;;3.70;;
80854;SDS011;70272;49.222;-122.892;2024-01-07T01:59:08;7.28;;;3.20;;
80854;SDS011;70272;49.222;-122.892;2024-01-07T02:01:34;4.22;;;3.10;;
80854;SDS011;70272;49.222;-122.892;2024-01-07T02:04:01;4.72;;;2.90;;
80854;SDS011;70272;49.222;-122.892;2024-01-07T02:06:27;5.75;;;3.03;;
80854;SDS011;70272;49.222;-122.892;2024-01-07T02:08:54;4.65;;;3.00;;
80854;SDS011;70272;49.222;-122.892;2024-01-07T02:11:21;4.85;;;3.25;;
80854;SDS011;70272;49.222;-122.892;2024-01-07T02:13:47;5.30;;;3.47;;
80854;SDS011;70272;49.222;-122.892;2024-01-07T02:16:14;5.78;;;3.53;;
80854;SDS011;70272;49.222;-122.892;2024-01-07T02:18:42;5.05;;;3.15;;
80854;SDS011;70272;49.222;-122.892;2024-01-07T02:21:09;5.68;;;3.08;;
80854;SDS011;70272;49.222;-122.892;2024-01-07T02:23:35;4.72;;;2.83;;
80854;SDS011;70272;49.222;-122.892;2024-01-07T02:26:02;4.05;;;3.00;;
80854;SDS011;70272;49.222;-122.892;2024-01-07T02:28:29;5.90;;;2.97;;
80854;SDS011;70272;49.222;-122.892;2024-01-07T02:30:55;5.22;;;2.75;;
80854;SDS011;70272;49.222;-122.892;2024-01-07T02:33:22;4.25;;;2.83;;
80854;SDS011;70272;49.222;-122.892;2024-01-07T02:35:48;6.70;;;3.05;;
80854;SDS011;70272;49.222;-122.892;2024-01-07T02:38:14;5.30;;;3.10;;
80854;SDS011;70272;49.222;-122.892;2024-01-07T02:40:40;7.43;;;3.47;;
80854;SDS011;70272;49.222;-122.892;2024-01-07T02:43:07;6.22;;;3.78;;
80854;SDS011;70272;49.222;-122.892;2024-01-07T02:45:34;9.07;;;4.20;;
80854;SDS011;70272;49.222;-122.892;2024-01-07T02:48:00;8.15;;;4.32;;
80854;SDS011;70272;49.222;-122.892;2024-01-07T02:50:26;6.55;;;4.10;;
80854;SDS011;70272;49.222;-122.892;2024-01-07T02:52:53;4.85;;;3.80;;
80854;SDS011;70272;49.222;-122.892;2024-01-07T02:55:19;4.75;;;3.70;;
80854;SDS011;70272;49.222;-122.892;2024-01-07T02:57:45;6.75;;;3.58;;
80854;SDS011;70272;49.222;-122.892;2024-01-07T03:00:12;7.20;;;3.50;;
80854;SDS011;70272;49.222;-122.892;2024-01-07T03:02:39;6.35;;;3.88;;
80854;SDS011;70272;49.222;-122.892;2024-01-07T03:05:05;8.82;;;3.78;;
80854;SDS011;70272;49.222;-122.892;2024-01-07T03:07:32;6.28;;;3.97;;
80854;SDS011;70272;49.222;-122.892;2024-01-07T03:09:58;6.63;;;3.83;;
80854;SDS011;70272;49.222;-122.892;2024-01-07T03:12:24;6.38;;;3.55;;
80854;SDS011;70272;49.222;-122.892;2024-01-07T03:14:51;6.03;;;3.60;;
80854;SDS011;70272;49.222;-122.892;2024-01-07T03:17:17;5.45;;;3.08;;
80854;SDS011;70272;49.222;-122.892;2024-01-07T03:19:43;4.90;;;3.10;;
80854;SDS011;70272;49.222;-122.892;2024-01-07T03:22:09;5.40;;;3.10;;
80854;SDS011;70272;49.222;-122.892;2024-01-07T03:24:36;4.18;;;2.97;;
80854;SDS011;70272;49.222;-122.892;2024-01-07T03:27:02;5.80;;;3.20;;
80854;SDS011;70272;49.222;-122.892;2024-01-07T03:29:28;4.05;;;2.85;;
80854;SDS011;70272;49.222;-122.892;2024-01-07T03:31:54;6.15;;;3.33;;
80854;SDS011;70272;49.222;-122.892;2024-01-07T03:34:21;7.07;;;3.75;;
80854;SDS011;70272;49.222;-122.892;2024-01-07T03:36:47;6.55;;;3.38;;
80854;SDS011;70272;49.222;-122.892;2024-01-07T03:39:13;7.68;;;3.90;;
80854;SDS011;70272;49.222;-122.892;2024-01-07T03:41:40;5.70;;;3.10;;
80854;SDS011;70272;49.222;-122.892;2024-01-07T03:44:06;6.10;;;3.53;;
80854;SDS011;70272;49.222;-122.892;2024-01-07T03:46:32;6.80;;;3.50;;
80854;SDS011;70272;49.222;-122.892;2024-01-07T03:49:01;4.47;;;3.13;;
80854;SDS011;70272;49.222;-122.892;2024-01-07T03:51:27;4.25;;;2.92;;
80854;SDS011;70272;49.222;-122.892;2024-01-07T03:53:54;4.97;;;3.42;;
80854;SDS011;70272;49.222;-122.892;2024-01-07T03:56:20;6.20;;;3.67;;
80854;SDS011;70272;49.222;-122.892;2024-01-07T03:58:46;5.72;;;3.55;;
80854;SDS011;70272;49.222;-122.892;2024-01-07T04:01:16;6.47;;;3.50;;
80854;SDS011;70272;49.222;-122.892;2024-01-07T04:03:43;8.90;;;3.75;;
80854;SDS011;70272;49.222;-122.892;2024-01-07T04:06:09;6.38;;;3.03;;
80854;SDS011;70272;49.222;-122.892;2024-01-07T04:08:35;6.15;;;3.55;;
80854;SDS011;70272;49.222;-122.892;2024-01-07T04:11:02;4.55;;;2.85;;
80854;SDS011;70272;49.222;-122.892;2024-01-07T04:13:28;6.57;;;3.50;;
80854;SDS011;70272;49.222;-122.892;2024-01-07T04:15:55;7.13;;;3.65;;
80854;SDS011;70272;49.222;-122.892;2024-01-07T04:18:21;7.05;;;3.80;;
80854;SDS011;70272;49.222;-122.892;2024-01-07T04:20:47;5.32;;;3.28;;
80854;SDS011;70272;49.222;-122.892;2024-01-07T04:23:13;5.13;;;3.30;;
80854;SDS011;70272;49.222;-122.892;2024-01-07T04:25:40;6.30;;;3.28;;
80854;SDS011;70272;49.222;-122.892;2024-01-07T04:28:07;6.38;;;3.40;;
80854;SDS011;70272;49.222;-122.892;2024-01-07T04:30:35;6.00;;;3.22;;
80854;SDS011;70272;49.222;-122.892;2024-01-07T04:33:01;7.07;;;3.72;;
80854;SDS011;70272;49.222;-122.892;2024-01-07T04:35:27;5.82;;;3.60;;
80854;SDS011;70272;49.222;-122.892;2024-01-07T04:37:54;9.10;;;3.38;;
80854;SDS011;70272;49.222;-122.892;2024-01-07T04:40:20;6.55;;;3.30;;
80854;SDS011;70272;49.222;-122.892;2024-01-07T04:42:46;5.70;;;3.08;;
80854;SDS011;70272;49.222;-122.892;2024-01-07T04:45:12;5.55;;;4.20;;
80854;SDS011;70272;49.222;-122.892;2024-01-07T04:47:39;6.10;;;3.70;;
80854;SDS011;70272;49.222;-122.892;2024-01-07T04:50:05;5.18;;;3.45;;
80854;SDS011;70272;49.222;-122.892;2024-01-07T04:52:32;6.15;;;2.95;;
80854;SDS011;70272;49.222;-122.892;2024-01-07T04:54:58;5.95;;;4.03;;
80854;SDS011;70272;49.222;-122.892;2024-01-07T04:57:24;6.43;;;3.58;;
80854;SDS011;70272;49.222;-122.892;2024-01-07T04:59:51;7.60;;;3.50;;
80854;SDS011;70272;49.222;-122.892;2024-01-07T05:02:17;7.55;;;4.28;;
80854;SDS011;70272;49.222;-122.892;2024-01-07T05:04:44;7.82;;;3.80;;
80854;SDS011;70272;49.222;-122.892;2024-01-07T05:07:10;6.82;;;3.88;;
80854;SDS011;70272;49.222;-122.892;2024-01-07T05:09:36;6.47;;;4.40;;
80854;SDS011;70272;49.222;-122.892;2024-01-07T05:12:02;7.18;;;4.13;;
80854;SDS011;70272;49.222;-122.892;2024-01-07T05:14:29;6.70;;;3.50;;
80854;SDS011;70272;49.222;-122.892;2024-01-07T05:16:55;4.60;;;3.60;;
80854;SDS011;70272;49.222;-122.892;2024-01-07T05:19:22;6.88;;;3.65;;
80854;SDS011;70272;49.222;-122.892;2024-01-07T05:21:48;6.18;;;4.15;;
80854;SDS011;70272;49.222;-122.892;2024-01-07T05:24:14;6.18;;;4.03;;
80854;SDS011;70272;49.222;-122.892;2024-01-07T05:26:41;6.05;;;3.45;;
80854;SDS011;70272;49.222;-122.892;2024-01-07T05:29:09;6.18;;;4.03;;
80854;SDS011;70272;49.222;-122.892;2024-01-07T05:31:35;6.63;;;3.63;;
80854;SDS011;70272;49.222;-122.892;2024-01-07T05:34:01;7.57;;;4.15;;
80854;SDS011;70272;49.222;-122.892;2024-01-07T05:36:28;7.57;;;4.45;;
80854;SDS011;70272;49.222;-122.892;2024-01-07T05:38:54;11.65;;;6.82;;
80854;SDS011;70272;49.222;-122.892;2024-01-07T05:41:20;9.55;;;5.32;;
80854;SDS011;70272;49.222;-122.892;2024-01-07T05:43:46;7.40;;;4.38;;
80854;SDS011;70272;49.222;-122.892;2024-01-07T05:46:13;7.00;;;4.70;;
80854;SDS011;70272;49.222;-122.892;2024-01-07T05:48:46;7.10;;;4.07;;
80854;SDS011;70272;49.222;-122.892;2024-01-07T05:51:14;7.97;;;4.18;;
80854;SDS011;70272;49.222;-122.892;2024-01-07T05:53:41;7.32;;;4.75;;
80854;SDS011;70272;49.222;-122.892;2024-01-07T05:56:08;6.05;;;4.10;;
80854;SDS011;70272;49.222;-122.892;2024-01-07T05:58:35;9.18;;;4.68;;
80854;SDS011;70272;49.222;-122.892;2024-01-07T06:01:01;8.68;;;3.92;;
80854;SDS011;70272;49.222;-122.892;2024-01-07T06:03:28;6.35;;;3.90;;
80854;SDS011;70272;49.222;-122.892;2024-01-07T06:05:54;9.63;;;4.88;;
80854;SDS011;70272;49.222;-122.892;2024-01-07T06:08:20;6.97;;;3.90;;
80854;SDS011;70272;49.222;-122.892;2024-01-07T06:10:46;9.63;;;4.75;;
80854;SDS011;70272;49.222;-122.892;2024-01-07T06:13:13;7.50;;;4.15;;
80854;SDS011;70272;49.222;-122.892;2024-01-07T06:15:39;5.75;;;4.15;;
80854;SDS011;70272;49.222;-122.892;2024-01-07T06:18:06;8.73;;;4.45;;
80854;SDS011;70272;49.222;-122.892;2024-01-07T06:20:32;8.40;;;4.05;;
80854;SDS011;70272;49.222;-122.892;2024-01-07T06:22:58;7.40;;;4.13;;
80854;SDS011;70272;49.222;-122.892;2024-01-07T06:25:25;7.82;;;4.60;;
80854;SDS011;70272;49.222;-122.892;2024-01-07T06:27:51;8.80;;;4.60;;
80854;SDS011;70272;49.222;-122.892;2024-01-07T06:30:18;8.18;;;4.50;;
80854;SDS011;70272;49.222;-122.892;2024-01-07T06:32:44;7.32;;;3.72;;
80854;SDS011;70272;49.222;-122.892;2024-01-07T06:35:11;10.48;;;4.82;;
80854;SDS011;70272;49.222;-122.892;2024-01-07T06:37:37;8.13;;;4.60;;
80854;SDS011;70272;49.222;-122.892;2024-01-07T06:40:04;8.00;;;3.97;;
80854;SDS011;70272;49.222;-122.892;2024-01-07T06:42:30;6.43;;;4.35;;
80854;SDS011;70272;49.222;-122.892;2024-01-07T06:44:56;7.30;;;4.15;;
80854;SDS011;70272;49.222;-122.892;2024-01-07T06:47:23;7.47;;;3.95;;
80854;SDS011;70272;49.222;-122.892;2024-01-07T06:49:49;6.45;;;4.32;;
80854;SDS011;70272;49.222;-122.892;2024-01-07T06:52:15;7.60;;;4.13;;
80854;SDS011;70272;49.222;-122.892;2024-01-07T06:54:41;7.47;;;3.75;;
80854;SDS011;70272;49.222;-122.892;2024-01-07T06:57:08;5.72;;;3.20;;
80854;SDS011;70272;49.222;-122.892;2024-01-07T06:59:34;6.45;;;3.60;;
80854;SDS011;70272;49.222;-122.892;2024-01-07T07:02:00;5.38;;;3.42;;
80854;SDS011;70272;49.222;-122.892;2024-01-07T07:04:26;7.40;;;3.65;;
80854;SDS011;70272;49.222;-122.892;2024-01-07T07:06:53;5.13;;;3.30;;
80854;SDS011;70272;49.222;-122.892;2024-01-07T07:09:19;4.20;;;2.67;;
80854;SDS011;70272;49.222;-122.892;2024-01-07T07:11:45;3.45;;;2.70;;
80854;SDS011;70272;49.222;-122.892;2024-01-07T07:14:11;4.70;;;2.63;;
80854;SDS011;70272;49.222;-122.892;2024-01-07T07:16:38;5.60;;;3.47;;
80854;SDS011;70272;49.222;-122.892;2024-01-07T07:19:04;5.65;;;3.10;;
80854;SDS011;70272;49.222;-122.892;2024-01-07T07:21:30;4.53;;;3.00;;
80854;SDS011;70272;49.222;-122.892;2024-01-07T07:23:57;5.25;;;2.95;;
80854;SDS011;70272;49.222;-122.892;2024-01-07T07:26:23;3.90;;;2.50;;
80854;SDS011;70272;49.222;-122.892;2024-01-07T07:28:49;3.42;;;2.53;;
80854;SDS011;70272;49.222;-122.892;2024-01-07T07:31:15;4.70;;;2.65;;
80854;SDS011;70272;49.222;-122.892;2024-01-07T07:33:42;3.10;;;2.22;;
80854;SDS011;70272;49.222;-122.892;2024-01-07T07:36:08;4.80;;;2.63;;
80854;SDS011;70272;49.222;-122.892;2024-01-07T07:38:35;3.83;;;2.38;;
80854;SDS011;70272;49.222;-122.892;2024-01-07T07:41:01;4.25;;;2.70;;
80854;SDS011;70272;49.222;-122.892;2024-01-07T07:43:27;5.85;;;2.80;;
80854;SDS011;70272;49.222;-122.892;2024-01-07T07:45:54;4.43;;;2.40;;
80854;SDS011;70272;49.222;-122.892;2024-01-07T07:48:21;3.92;;;2.80;;
80854;SDS011;70272;49.222;-122.892;2024-01-07T07:50:48;4.68;;;2.75;;
80854;SDS011;70272;49.222;-122.892;2024-01-07T07:53:15;6.80;;;2.90;;
80854;SDS011;70272;49.222;-122.892;2024-01-07T07:55:41;4.50;;;2.40;;
80854;SDS011;70272;49.222;-122.892;2024-01-07T07:58:08;7.25;;;3.50;;
80854;SDS011;70272;49.222;-122.892;2024-01-07T08:00:34;5.10;;;2.92;;
80854;SDS011;70272;49.222;-122.892;2024-01-07T08:03:01;7.00;;;3.05;;
80854;SDS011;70272;49.222;-122.892;2024-01-07T08:05:27;4.38;;;2.70;;
80854;SDS011;70272;49.222;-122.892;2024-01-07T08:07:53;5.15;;;3.08;;
80854;SDS011;70272;49.222;-122.892;2024-01-07T08:10:20;4.72;;;2.60;;
80854;SDS011;70272;49.222;-122.892;2024-01-07T08:12:48;6.10;;;3.13;;
80854;SDS011;70272;49.222;-122.892;2024-01-07T08:15:14;4.00;;;2.22;;
80854;SDS011;70272;49.222;-122.892;2024-01-07T08:17:41;6.53;;;2.58;;
80854;SDS011;70272;49.222;-122.892;2024-01-07T08:20:09;5.78;;;3.13;;
80854;SDS011;70272;49.222;-122.892;2024-01-07T08:22:35;3.45;;;2.25;;
80854;SDS011;70272;49.222;-122.892;2024-01-07T08:25:02;4.05;;;2.17;;
80854;SDS011;70272;49.222;-122.892;2024-01-07T08:27:28;4.57;;;2.58;;
80854;SDS011;70272;49.222;-122.892;2024-01-07T08:29:55;5.10;;;2.47;;
80854;SDS011;70272;49.222;-122.892;2024-01-07T08:32:21;4.53;;;2.55;;
80854;SDS011;70272;49.222;-122.892;2024-01-07T08:34:48;4.82;;;3.13;;
80854;SDS011;70272;49.222;-122.892;2024-01-07T08:37:14;5.13;;;2.38;;
80854;SDS011;70272;49.222;-122.892;2024-01-07T08:39:40;4.43;;;2.50;;
80854;SDS011;70272;49.222;-122.892;2024-01-07T08:42:07;5.65;;;2.97;;
80854;SDS011;70272;49.222;-122.892;2024-01-07T08:44:34;5.28;;;2.83;;
80854;SDS011;70272;49.222;-122.892;2024-01-07T08:47:00;3.75;;;2.30;;
80854;SDS011;70272;49.222;-122.892;2024-01-07T08:49:30;4.95;;;2.63;;
80854;SDS011;70272;49.222;-122.892;2024-01-07T08:52:00;3.65;;;2.30;;
80854;SDS011;70272;49.222;-122.892;2024-01-07T08:54:26;3.35;;;2.17;;
80854;SDS011;70272;49.222;-122.892;2024-01-07T08:56:52;4.35;;;2.60;;
80854;SDS011;70272;49.222;-122.892;2024-01-07T08:59:18;3.53;;;2.50;;
80854;SDS011;70272;49.222;-122.892;2024-01-07T09:01:44;4.28;;;2.70;;
80854;SDS011;70272;49.222;-122.892;2024-01-07T09:04:11;4.10;;;2.53;;
80854;SDS011;70272;49.222;-122.892;2024-01-07T09:06:37;5.50;;;3.30;;
80854;SDS011;70272;49.222;-122.892;2024-01-07T09:09:03;5.03;;;3.50;;
80854;SDS011;70272;49.222;-122.892;2024-01-07T09:11:33;4.95;;;3.28;;
80854;SDS011;70272;49.222;-122.892;2024-01-07T09:14:01;7.47;;;2.40;;
80854;SDS011;70272;49.222;-122.892;2024-01-07T09:16:27;3.30;;;2.00;;
80854;SDS011;70272;49.222;-122.892;2024-01-07T09:18:53;3.38;;;1.90;;
80854;SDS011;70272;49.222;-122.892;2024-01-07T09:21:19;3.42;;;2.45;;
80854;SDS011;70272;49.222;-122.892;2024-01-07T09:23:48;5.00;;;2.63;;
80854;SDS011;70272;49.222;-122.892;2024-01-07T09:26:15;3.42;;;2.28;;
80854;SDS011;70272;49.222;-122.892;2024-01-07T09:28:41;4.78;;;2.25;;
80854;SDS011;70272;49.222;-122.892;2024-01-07T09:31:08;4.03;;;2.58;;
80854;SDS011;70272;49.222;-122.892;2024-01-07T09:33:34;2.85;;;2.28;;
80854;SDS011;70272;49.222;-122.892;2024-01-07T09:36:00;4.70;;;2.40;;
80854;SDS011;70272;49.222;-122.892;2024-01-07T09:38:27;4.90;;;2.72;;
80854;SDS011;70272;49.222;-122.892;2024-01-07T09:40:53;3.47;;;2.72;;
80854;SDS011;70272;49.222;-122.892;2024-01-07T09:43:19;4.57;;;2.85;;
80854;SDS011;70272;49.222;-122.892;2024-01-07T09:45:46;4.35;;;2.38;;
80854;SDS011;70272;49.222;-122.892;2024-01-07T09:48:16;4.05;;;2.58;;
80854;SDS011;70272;49.222;-122.892;2024-01-07T09:50:42;3.63;;;2.20;;
80854;SDS011;70272;49.222;-122.892;2024-01-07T09:53:11;4.05;;;2.90;;
80854;SDS011;70272;49.222;-122.892;2024-01-07T09:55:48;4.88;;;2.75;;
80854;SDS011;70272;49.222;-122.892;2024-01-07T09:58:17;6.93;;;3.30;;
80854;SDS011;70272;49.222;-122.892;2024-01-07T10:00:44;4.47;;;2.78;;
80854;SDS011;70272;49.222;-122.892;2024-01-07T10:03:10;5.03;;;3.05;;
80854;SDS011;70272;49.222;-122.892;2024-01-07T10:05:36;3.97;;;2.60;;
80854;SDS011;70272;49.222;-122.892;2024-01-07T10:08:03;3.50;;;2.42;;
80854;SDS011;70272;49.222;-122.892;2024-01-07T10:10:29;4.82;;;2.60;;
80854;SDS011;70272;49.222;-122.892;2024-01-07T10:12:56;3.70;;;2.80;;
80854;SDS011;70272;49.222;-122.892;2024-01-07T10:15:22;3.67;;;2.42;;
80854;SDS011;70272;49.222;-122.892;2024-01-07T10:17:49;3.28;;;2.35;;
80854;SDS011;70272;49.222;-122.892;2024-01-07T10:20:16;3.17;;;2.55;;
80854;SDS011;70272;49.222;-122.892;2024-01-07T10:22:46;4.03;;;2.53;;
80854;SDS011;70272;49.222;-122.892;2024-01-07T10:25:15;3.22;;;2.33;;
80854;SDS011;70272;49.222;-122.892;2024-01-07T10:27:42;4.65;;;2.50;;
80854;SDS011;70272;49.222;-122.892;2024-01-07T10:30:08;4.40;;;2.83;;
80854;SDS011;70272;49.222;-122.892;2024-01-07T10:32:35;3.75;;;2.47;;
80854;SDS011;70272;49.222;-122.892;2024-01-07T10:35:03;3.65;;;2.38;;
80854;SDS011;70272;49.222;-122.892;2024-01-07T10:37:31;3.10;;;2.03;;
80854;SDS011;70272;49.222;-122.892;2024-01-07T10:39:58;3.00;;;2.22;;
80854;SDS011;70272;49.222;-122.892;2024-01-07T10:42:32;4.72;;;2.45;;
80854;SDS011;70272;49.222;-122.892;2024-01-07T10:44:59;3.70;;;2.17;;
80854;SDS011;70272;49.222;-122.892;2024-01-07T10:47:32;3.45;;;2.33;;
80854;SDS011;70272;49.222;-122.892;2024-01-07T10:50:00;3.63;;;2.30;;
80854;SDS011;70272;49.222;-122.892;2024-01-07T10:52:28;3.30;;;2.33;;
80854;SDS011;70272;49.222;-122.892;2024-01-07T10:54:56;3.28;;;2.13;;
80854;SDS011;70272;49.222;-122.892;2024-01-07T10:57:31;4.35;;;2.45;;
80854;SDS011;70272;49.222;-122.892;2024-01-07T11:00:15;3.40;;;2.30;;
80854;SDS011;70272;49.222;-122.892;2024-01-07T11:05:37;2.65;;;2.25;;
80854;SDS011;70272;49.222;-122.892;2024-01-07T11:11:21;2.58;;;2.08;;
80854;SDS011;70272;49.222;-122.892;2024-01-07T11:13:49;2.60;;;1.92;;
80854;SDS011;70272;49.222;-122.892;2024-01-07T11:16:36;2.97;;;2.25;;
80854;SDS011;70272;49.222;-122.892;2024-01-07T11:19:05;3.50;;;3.15;;
80854;SDS011;70272;49.222;-122.892;2024-01-07T11:21:31;2.65;;;2.03;;
80854;SDS011;70272;49.222;-122.892;2024-01-07T11:23:57;3.58;;;2.15;;
80854;SDS011;70272;49.222;-122.892;2024-01-07T11:26:24;3.47;;;2.58;;
80854;SDS011;70272;49.222;-122.892;2024-01-07T11:28:51;2.88;;;2.35;;
80854;SDS011;70272;49.222;-122.892;2024-01-07T11:31:22;2.83;;;2.00;;
80854;SDS011;70272;49.222;-122.892;2024-01-07T11:34:07;2.63;;;1.92;;
80854;SDS011;70272;49.222;-122.892;2024-01-07T11:36:37;3.63;;;2.15;;
80854;SDS011;70272;49.222;-122.892;2024-01-07T11:39:04;3.35;;;2.17;;
80854;SDS011;70272;49.222;-122.892;2024-01-07T11:41:34;3.53;;;2.10;;
80854;SDS011;70272;49.222;-122.892;2024-01-07T11:44:01;6.93;;;2.40;;
80854;SDS011;70272;49.222;-122.892;2024-01-07T11:46:28;3.47;;;2.33;;
80854;SDS011;70272;49.222;-122.892;2024-01-07T11:48:56;3.85;;;2.58;;
80854;SDS011;70272;49.222;-122.892;2024-01-07T11:51:28;3.40;;;2.70;;
80854;SDS011;70272;49.222;-122.892;2024-01-07T11:53:58;3.22;;;2.25;;
80854;SDS011;70272;49.222;-122.892;2024-01-07T11:56:26;5.38;;;2.33;;
80854;SDS011;70272;49.222;-122.892;2024-01-07T11:58:52;4.70;;;2.60;;
80854;SDS011;70272;49.222;-122.892;2024-01-07T12:01:19;3.22;;;1.95;;
80854;SDS011;70272;49.222;-122.892;2024-01-07T12:03:45;3.15;;;2.53;;
80854;SDS011;70272;49.222;-122.892;2024-01-07T12:06:12;2.75;;;2.10;;
80854;SDS011;70272;49.222;-122.892;2024-01-07T12:08:40;2.97;;;2.28;;
80854;SDS011;70272;49.222;-122.892;2024-01-07T12:11:13;3.67;;;1.95;;
80854;SDS011;70272;49.222;-122.892;2024-01-07T12:13:40;2.92;;;2.10;;
80854;SDS011;70272;49.222;-122.892;2024-01-07T12:16:08;3.50;;;1.85;;
80854;SDS011;70272;49.222;-122.892;2024-01-07T12:18:38;2.13;;;1.70;;
80854;SDS011;70272;49.222;-122.892;2024-01-07T12:21:05;2.47;;;1.67;;
80854;SDS011;70272;49.222;-122.892;2024-01-07T12:23:36;2.80;;;1.88;;
80854;SDS011;70272;49.222;-122.892;2024-01-07T12:26:09;2.72;;;1.85;;
80854;SDS011;70272;49.222;-122.892;2024-01-07T12:28:37;2.28;;;1.60;;
80854;SDS011;70272;49.222;-122.892;2024-01-07T12:31:04;2.92;;;1.70;;
80854;SDS011;70272;49.222;-122.892;2024-01-07T12:33:31;1.90;;;1.70;;
80854;SDS011;70272;49.222;-122.892;2024-01-07T12:35:59;1.65;;;1.50;;
80854;SDS011;70272;49.222;-122.892;2024-01-07T12:38:28;2.53;;;1.83;;
80854;SDS011;70272;49.222;-122.892;2024-01-07T12:40:54;2.47;;;1.50;;
80854;SDS011;70272;49.222;-122.892;2024-01-07T12:43:21;2.13;;;1.48;;
80854;SDS011;70272;49.222;-122.892;2024-01-07T12:45:48;3.15;;;1.70;;
80854;SDS011;70272;49.222;-122.892;2024-01-07T12:48:15;3.03;;;1.85;;
80854;SDS011;70272;49.222;-122.892;2024-01-07T12:50:41;3.17;;;1.73;;
80854;SDS011;70272;49.222;-122.892;2024-01-07T12:53:07;2.17;;;1.88;;
80854;SDS011;70272;49.222;-122.892;2024-01-07T12:55:34;2.17;;;1.70;;
80854;SDS011;70272;49.222;-122.892;2024-01-07T12:58:01;2.17;;;1.85;;
80854;SDS011;70272;49.222;-122.892;2024-01-07T13:00:27;1.98;;;1.42;;
80854;SDS011;70272;49.222;-122.892;2024-01-07T13:02:54;2.83;;;1.90;;
80854;SDS011;70272;49.222;-122.892;2024-01-07T13:05:21;2.08;;;1.58;;
80854;SDS011;70272;49.222;-122.892;2024-01-07T13:07:47;2.85;;;1.92;;
80854;SDS011;70272;49.222;-122.892;2024-01-07T13:10:13;2.22;;;1.58;;
80854;SDS011;70272;49.222;-122.892;2024-01-07T13:12:40;4.07;;;2.15;;
80854;SDS011;70272;49.222;-122.892;2024-01-07T13:15:06;2.85;;;1.80;;
80854;SDS011;70272;49.222;-122.892;2024-01-07T13:17:33;3.15;;;1.63;;
80854;SDS011;70272;49.222;-122.892;2024-01-07T13:19:59;2.55;;;1.70;;
80854;SDS011;70272;49.222;-122.892;2024-01-07T13:22:26;2.22;;;1.60;;
80854;SDS011;70272;49.222;-122.892;2024-01-07T13:24:52;2.10;;;1.70;;
80854;SDS011;70272;49.222;-122.892;2024-01-07T13:27:22;2.75;;;1.92;;
80854;SDS011;70272;49.222;-122.892;2024-01-07T13:29:49;3.58;;;2.05;;
80854;SDS011;70272;49.222;-122.892;2024-01-07T13:32:15;3.47;;;1.90;;
80854;SDS011;70272;49.222;-122.892;2024-01-07T13:34:44;3.45;;;1.88;;
80854;SDS011;70272;49.222;-122.892;2024-01-07T13:37:10;2.75;;;2.13;;
80854;SDS011;70272;49.222;-122.892;2024-01-07T13:39:37;5.43;;;1.67;;
80854;SDS011;70272;49.222;-122.892;2024-01-07T13:42:04;4.97;;;2.17;;
80854;SDS011;70272;49.222;-122.892;2024-01-07T13:44:30;3.38;;;1.70;;
80854;SDS011;70272;49.222;-122.892;2024-01-07T13:46:56;2.15;;;1.67;;
80854;SDS011;70272;49.222;-122.892;2024-01-07T13:51:49;1.88;;;1.67;;
80854;SDS011;70272;49.222;-122.892;2024-01-07T13:54:15;3.20;;;1.65;;
80854;SDS011;70272;49.222;-122.892;2024-01-07T13:56:49;2.47;;;1.73;;
80854;SDS011;70272;49.222;-122.892;2024-01-07T13:59:16;3.60;;;2.05;;
80854;SDS011;70272;49.222;-122.892;2024-01-07T14:01:43;3.53;;;1.70;;
80854;SDS011;70272;49.222;-122.892;2024-01-07T14:06:35;2.63;;;1.40;;
80854;SDS011;70272;49.222;-122.892;2024-01-07T14:09:01;1.20;;;1.10;;
80854;SDS011;70272;49.222;-122.892;2024-01-07T14:11:28;2.30;;;1.58;;
80854;SDS011;70272;49.222;-122.892;2024-01-07T14:13:55;2.30;;;1.65;;
80854;SDS011;70272;49.222;-122.892;2024-01-07T14:16:21;2.20;;;1.67;;
80854;SDS011;70272;49.222;-122.892;2024-01-07T14:18:47;2.08;;;1.77;;